Time;durP1;ratioP1;P1;durP2;ratioP2;P2;SDS_P1;SDS_P2;PMS_P1;PMS_P2;Temp;Humidity;BMP_temperature;BMP_pressure;BME280_temperature;BME280_humidity;BME280_pressure;Samples;Min_cycle;Max_cycle;Signal;HPM_P1;HPM_P2
2023/06/13 00:00:55;;;;;;;6.50;4.30;;;;;;;20.20;100.00;100995.59;2072884;28;20876;-70
2023/06/13 00:01:55;;;;;;;5.37;4.37;;;;;;;20.17;100.00;100993.75;2072818;28;20322;-70
2023/06/13 00:02:57;;;;;;;4.80;4.10;;;;;;;20.21;100.00;100997.16;2072490;28;20193;-70
2023/06/13 00:04:01;;;;;;;5.23;4.30;;;;;;;20.26;100.00;100999.28;2072003;28;20182;-70
2023/06/13 00:05:03;;;;;;;8.40;4.70;;;;;;;20.23;100.00;100992.59;2068747;28;20531;-70
2023/06/13 00:06:04;;;;;;;4.83;4.20;;;;;;;20.11;100.00;100979.59;2067920;28;20463;-70
2023/06/13 00:07:07;;;;;;;4.03;3.73;;;;;;;20.23;100.00;100998.22;2072973;28;20424;-70
2023/06/13 00:08:09;;;;;;;5.60;4.20;;;;;;;20.25;100.00;100995.66;2073368;28;20197;-71
2023/06/13 00:09:09;;;;;;;5.13;4.53;;;;;;;20.28;100.00;100993.91;2073025;28;20432;-70
2023/06/13 00:10:10;;;;;;;4.97;4.03;;;;;;;20.28;100.00;101008.00;2072779;28;20583;-71
2023/06/13 00:11:10;;;;;;;5.30;4.70;;;;;;;20.32;100.00;101009.31;2072034;28;20186;-70
2023/06/13 00:12:11;;;;;;;5.90;4.27;;;;;;;20.35;100.00;100997.09;2073469;28;20710;-71
2023/06/13 00:13:14;;;;;;;7.70;4.60;;;;;;;20.35;100.00;100990.69;2072311;28;20186;-71
2023/06/13 00:14:16;;;;;;;4.63;4.23;;;;;;;20.29;100.00;100992.66;2071900;28;20185;-71
2023/06/13 00:15:16;;;;;;;6.30;5.03;;;;;;;19.39;100.00;100856.78;2072544;28;20424;-71
2023/06/13 00:16:17;;;;;;;8.00;4.50;;;;;;;20.11;100.00;100976.03;2072722;28;20413;-70
2023/06/13 00:17:18;;;;;;;5.57;4.30;;;;;;;20.22;100.00;100993.06;2067794;28;20273;-70
2023/06/13 00:18:19;;;;;;;5.00;4.40;;;;;;;19.50;100.00;100890.69;2073040;28;20166;-71
2023/06/13 00:19:19;;;;;;;7.20;5.27;;;;;;;20.13;100.00;100999.59;2071939;28;20342;-71
2023/06/13 00:20:21;;;;;;;6.63;5.97;;;;;;;20.17;100.00;101000.16;2065793;28;20433;-71
2023/06/13 00:21:23;;;;;;;8.10;5.83;;;;;;;20.18;100.00;100998.13;2071093;28;20194;-71
2023/06/13 00:22:24;;;;;;;7.70;6.37;;;;;;;20.19;100.00;100991.22;2073124;28;20883;-71
2023/06/13 00:23:26;;;;;;;10.10;7.00;;;;;;;19.63;100.00;100910.03;2073067;28;20436;-71
2023/06/13 00:24:26;;;;;;;7.93;6.10;;;;;;;20.18;100.00;100995.31;2073084;28;20498;-70
2023/06/13 00:25:27;;;;;;;9.43;6.70;;;;;;;20.12;100.00;100992.41;2071510;28;20506;-71
2023/06/13 00:26:27;;;;;;;9.43;6.50;;;;;;;20.14;100.00;100997.53;2072942;28;20196;-71
2023/06/13 00:27:27;;;;;;;9.47;7.30;;;;;;;20.11;100.00;100992.91;2073343;28;20176;-71
2023/06/13 00:28:28;;;;;;;9.20;7.00;;;;;;;20.10;100.00;101000.56;2073121;28;20218;-71
2023/06/13 00:29:28;;;;;;;10.10;7.27;;;;;;;20.12;100.00;100986.78;2072907;28;20200;-71
2023/06/13 00:30:29;;;;;;;9.10;6.93;;;;;;;19.23;100.00;100860.09;2072333;28;20270;-71
2023/06/13 00:31:30;;;;;;;7.70;6.87;;;;;;;20.17;100.00;100988.88;2072742;28;20195;-71
2023/06/13 00:32:31;;;;;;;10.97;7.07;;;;;;;20.13;100.00;100991.16;2072845;28;20972;-71
2023/06/13 00:33:31;;;;;;;10.00;7.50;;;;;;;20.14;100.00;100984.25;2070902;28;20174;-71
2023/06/13 00:34:32;;;;;;;10.67;7.00;;;;;;;20.16;100.00;100987.34;2072819;28;20261;-71
2023/06/13 00:35:32;;;;;;;8.03;7.23;;;;;;;19.27;100.00;100866.28;2071729;28;20212;-71
2023/06/13 00:36:34;;;;;;;7.47;6.63;;;;;;;19.12;100.00;100848.66;2072804;28;20674;-71
2023/06/13 00:37:36;;;;;;;8.20;7.40;;;;;;;20.00;100.00;100987.84;2073061;28;20216;-71
2023/06/13 00:38:38;;;;;;;8.17;7.20;;;;;;;19.98;100.00;100990.38;2072921;28;20530;-71
2023/06/13 00:39:39;;;;;;;8.97;7.10;;;;;;;19.97;100.00;100985.25;2072997;28;20953;-71
2023/06/13 00:40:40;;;;;;;7.83;7.03;;;;;;;19.42;100.00;100908.44;2071151;28;20937;-71
2023/06/13 00:41:40;;;;;;;8.80;7.90;;;;;;;19.97;100.00;100991.66;2073085;28;20812;-71
2023/06/13 00:42:41;;;;;;;8.57;7.23;;;;;;;20.01;100.00;100986.56;2072025;28;20203;-71
2023/06/13 00:43:42;;;;;;;10.10;7.53;;;;;;;20.01;100.00;100986.56;2072111;28;20181;-71
2023/06/13 00:44:42;;;;;;;10.10;7.40;;;;;;;20.01;100.00;100985.81;2073071;28;20207;-71
2023/06/13 00:45:42;;;;;;;9.63;7.27;;;;;;;19.89;100.00;100987.69;2071882;28;20701;-71
2023/06/13 00:46:44;;;;;;;8.20;7.40;;;;;;;19.84;100.00;100979.94;2072511;28;20554;-71
2023/06/13 00:47:47;;;;;;;11.33;7.90;;;;;;;19.94;100.00;100989.00;2073040;28;20292;-71
2023/06/13 00:48:48;;;;;;;11.27;8.20;;;;;;;19.97;100.00;100983.22;2072653;28;20816;-71
2023/06/13 00:49:49;;;;;;;8.47;7.43;;;;;;;20.02;100.00;100987.38;2072860;28;20440;-71
2023/06/13 00:50:50;;;;;;;11.00;7.73;;;;;;;20.01;100.00;100986.56;2072183;28;20436;-71
2023/06/13 00:51:52;;;;;;;9.97;7.20;;;;;;;19.95;100.00;100973.72;2070777;28;20193;-71
2023/06/13 00:52:57;;;;;;;8.77;7.23;;;;;;;19.24;100.00;100864.44;2066650;28;20420;-71
2023/06/13 00:54:00;;;;;;;9.83;7.30;;;;;;;19.92;100.00;100977.50;2072664;28;20494;-71
2023/06/13 00:55:03;;;;;;;9.77;7.43;;;;;;;19.91;100.00;100976.69;2064934;28;20424;-71
2023/06/13 00:56:05;;;;;;;10.00;7.37;;;;;;;19.88;100.00;100977.69;2071175;28;20459;-71
2023/06/13 00:57:07;;;;;;;7.87;7.07;;;;;;;19.78;100.00;100976.25;2072236;28;20428;-71
2023/06/13 00:58:07;;;;;;;9.63;7.03;;;;;;;19.80;100.00;100976.53;2073020;28;20452;-71
2023/06/13 00:59:08;;;;;;;9.83;7.30;;;;;;;19.76;100.00;100975.19;2068789;28;20442;-71
2023/06/13 01:00:10;;;;;;;8.37;7.47;;;;;;;19.56;100.00;100942.16;2072995;28;20177;-71
2023/06/13 01:01:11;;;;;;;10.13;7.27;;;;;;;19.78;100.00;100976.25;2072090;28;20944;-71
2023/06/13 01:02:15;;;;;;;8.87;7.43;;;;;;;19.77;100.00;100971.09;2072881;28;20413;-71
2023/06/13 01:03:15;;;;;;;9.07;7.00;;;;;;;19.69;100.00;100959.47;2072666;28;20491;-71
2023/06/13 01:04:19;;;;;;;8.07;6.57;;;;;;;19.70;100.00;100960.28;2072955;28;20424;-71
2023/06/13 01:05:21;;;;;;;8.53;6.90;;;;;;;19.58;100.00;100972.56;2072249;28;20578;-70
2023/06/13 01:06:28;;;;;;;9.80;6.97;;;;;;;19.52;100.00;100966.88;2072709;28;20474;-71
2023/06/13 01:07:33;;;;;;;7.70;6.47;;;;;;;19.51;100.00;100965.34;2072242;28;20451;-71
2023/06/13 01:08:37;;;;;;;8.67;6.70;;;;;;;19.36;100.00;100935.66;2072810;28;20463;-71
2023/06/13 01:09:38;;;;;;;10.67;6.23;;;;;;;19.44;100.00;100957.28;2072772;28;20455;-71
2023/06/13 01:10:40;;;;;;;7.10;6.40;;;;;;;19.45;100.00;100958.81;2072246;28;20430;-70
2023/06/13 01:11:47;;;;;;;8.97;6.60;;;;;;;19.45;100.00;100966.50;2072687;28;20664;-70
2023/06/13 01:13:13;;;;;;;7.90;6.30;;;;;;;19.43;100.00;100964.16;2072682;28;20427;-71
2023/06/13 01:14:44;;;;;;;9.30;5.97;;;;;;;19.32;100.00;100966.00;2071852;28;20440;-71
2023/06/13 01:16:04;;;;;;;7.37;6.27;;;;;;;19.29;100.00;100944.50;2063724;28;20407;-70
2023/06/13 01:17:21;;;;;;;7.10;6.00;;;;;;;19.34;100.00;100964.25;2068616;28;20428;-70
2023/06/13 01:18:24;;;;;;;7.67;5.90;;;;;;;19.17;100.00;100962.38;2072677;28;21098;-70
2023/06/13 01:19:28;;;;;;;8.90;5.83;;;;;;;19.07;100.00;100963.69;2072083;28;20525;-70
2023/06/13 01:20:31;;;;;;;8.17;6.87;;;;;;;19.00;100.00;100964.88;2072077;28;20420;-70
2023/06/13 01:21:33;;;;;;;11.07;6.60;;;;;;;19.07;100.00;100958.09;2072932;28;20795;-70
2023/06/13 01:22:54;;;;;;;7.67;6.20;;;;;;;19.09;100.00;100966.81;2072470;28;20440;-70
2023/06/13 01:24:10;;;;;;;7.73;5.80;;;;;;;19.11;100.00;100959.47;2070393;28;20807;-70
2023/06/13 01:25:52;;;;;;;8.60;5.87;;;;;;;19.02;100.00;100967.19;2065147;28;20402;-70
2023/06/13 01:26:56;;;;;;;6.00;5.40;;;;;;;18.98;100.00;100946.97;2055433;28;20446;-70
2023/06/13 01:27:58;;;;;;;7.07;5.43;;;;;;;18.96;100.00;100966.31;2070531;28;20461;-70
2023/06/13 01:29:00;;;;;;;8.63;5.93;;;;;;;18.84;100.00;100956.13;2072323;28;20944;-70
2023/06/13 01:30:02;;;;;;;9.17;5.20;;;;;;;18.95;100.00;100967.56;2072623;28;21113;-70
2023/06/13 01:31:06;;;;;;;8.37;5.60;;;;;;;18.95;100.00;100961.94;2072133;28;20416;-70
2023/06/13 01:32:08;;;;;;;8.10;5.53;;;;;;;18.82;100.00;100950.97;2072521;28;20418;-70
2023/06/13 01:33:09;;;;;;;6.80;5.57;;;;;;;18.76;100.00;100963.34;2072456;28;20872;-70
2023/06/13 01:34:12;;;;;;;8.50;5.40;;;;;;;18.77;100.00;100965.69;2072600;28;20431;-70
2023/06/13 01:35:13;;;;;;;8.53;5.63;;;;;;;18.70;100.00;100970.88;2072452;28;20817;-70
2023/06/13 01:36:14;;;;;;;6.63;5.40;;;;;;;18.48;100.00;100948.75;2071892;28;20424;-70
2023/06/13 01:37:15;;;;;;;7.47;5.47;;;;;;;18.13;100.00;100886.78;2072396;28;20448;-70
2023/06/13 01:38:16;;;;;;;5.53;4.93;;;;;;;18.49;100.00;100941.13;2072199;28;20451;-70
2023/06/13 01:39:17;;;;;;;7.10;5.30;;;;;;;18.61;100.00;100971.75;2072296;28;20201;-71
2023/06/13 01:40:17;;;;;;;8.93;5.70;;;;;;;18.62;100.00;100973.28;2072394;28;20456;-70
2023/06/13 01:41:18;;;;;;;8.63;5.67;;;;;;;18.65;100.00;100972.34;2071863;28;20265;-70
2023/06/13 01:42:18;;;;;;;8.00;5.43;;;;;;;18.64;100.00;100968.00;2072938;28;20564;-70
2023/06/13 01:43:19;;;;;;;7.30;5.10;;;;;;;18.48;100.00;100956.41;2072526;28;20617;-70
2023/06/13 01:44:20;;;;;;;7.20;5.30;;;;;;;18.46;100.00;100978.53;2072579;28;20227;-70
2023/06/13 01:45:22;;;;;;;7.00;4.90;;;;;;;18.46;100.00;100973.72;2072257;28;20705;-69
2023/06/13 01:46:27;;;;;;;7.43;4.33;;;;;;;18.20;100.00;100933.34;2072098;28;20895;-70
2023/06/13 01:47:50;;;;;;;8.47;4.87;;;;;;;18.44;100.00;100972.63;2072427;28;20447;-70
2023/06/13 01:48:55;;;;;;;6.03;4.50;;;;;;;17.18;100.00;100783.44;2071784;28;20426;-70
2023/06/13 01:50:22;;;;;;;8.13;4.90;;;;;;;18.28;100.00;100973.81;2072526;28;20483;-70
2023/06/13 01:52:22;;;;;;;6.17;4.90;;;;;;;18.33;100.00;100967.59;2071746;28;20529;-70
2023/06/13 01:53:29;;;;;;;6.97;4.40;;;;;;;18.27;100.00;100972.25;2063948;28;20452;-69
2023/06/13 01:54:35;;;;;;;6.00;4.07;;;;;;;18.25;100.00;100971.94;2072273;28;20450;-70
2023/06/13 01:55:42;;;;;;;5.50;4.77;;;;;;;18.14;100.00;100966.09;2072166;28;20453;-70
2023/06/13 01:56:44;;;;;;;7.93;4.70;;;;;;;18.25;100.00;100980.38;2072094;28;20457;-69
2023/06/13 01:57:51;;;;;;;6.33;4.30;;;;;;;18.25;100.00;100977.56;2072589;28;20446;-70
2023/06/13 01:58:56;;;;;;;6.87;4.20;;;;;;;18.27;100.00;100966.63;2072262;28;20933;-70
2023/06/13 01:59:57;;;;;;;8.53;4.30;;;;;;;18.13;100.00;100965.31;2071839;28;20433;-70
2023/06/13 02:01:01;;;;;;;6.60;3.93;;;;;;;18.22;100.00;100981.31;2072027;28;20562;-70
2023/06/13 02:02:03;;;;;;;6.00;3.90;;;;;;;18.08;100.00;100957.53;2072379;28;20427;-70
2023/06/13 02:03:05;;;;;;;7.17;3.90;;;;;;;18.13;100.00;100979.31;2072491;28;20426;-70
2023/06/13 02:04:05;;;;;;;6.87;3.77;;;;;;;18.15;100.00;100981.66;2064667;28;20426;-70
2023/06/13 02:05:08;;;;;;;4.47;3.43;;;;;;;18.12;100.00;100979.03;2070923;28;21087;-70
2023/06/13 02:06:08;;;;;;;7.87;4.13;;;;;;;18.13;100.00;100980.59;2071072;28;20223;-69
2023/06/13 02:07:09;;;;;;;5.10;3.80;;;;;;;18.12;100.00;100984.66;2072182;28;20438;-69
2023/06/13 02:08:09;;;;;;;6.23;3.50;;;;;;;18.08;100.00;100990.44;2072462;28;20214;-70
2023/06/13 02:09:11;;;;;;;5.10;3.30;;;;;;;17.96;100.00;100971.78;2069454;28;20577;-70
2023/06/13 02:10:11;;;;;;;6.00;3.47;;;;;;;18.08;100.00;100988.38;2071766;28;20292;-70
2023/06/13 02:11:12;;;;;;;4.70;3.50;;;;;;;16.78;100.00;100783.72;2071750;28;20420;-69
2023/06/13 02:12:13;;;;;;;8.10;3.50;;;;;;;18.00;100.00;100978.00;2072714;28;20176;-70
2023/06/13 02:13:13;;;;;;;4.97;3.00;;;;;;;17.94;100.00;100977.84;2072294;28;20185;-70
2023/06/13 02:14:14;;;;;;;7.27;3.40;;;;;;;18.00;100.00;100983.59;2072149;28;20276;-69
2023/06/13 02:15:14;;;;;;;7.63;3.83;;;;;;;18.03;100.00;100986.22;2071723;28;20201;-69
2023/06/13 02:16:17;;;;;;;5.27;3.17;;;;;;;16.90;100.00;100796.75;2071638;28;20319;-70
2023/06/13 02:17:17;;;;;;;5.83;2.90;;;;;;;17.98;100.00;100971.31;2072271;28;20193;-70
2023/06/13 02:18:17;;;;;;;5.23;3.37;;;;;;;16.77;100.00;100793.38;2072434;28;20500;-70
2023/06/13 02:19:18;;;;;;;4.43;2.80;;;;;;;17.86;100.00;100977.91;2071964;28;20287;-69
2023/06/13 02:20:18;;;;;;;7.70;2.97;;;;;;;17.82;100.00;100982.91;2072065;28;20186;-69
2023/06/13 02:21:19;;;;;;;5.17;3.17;;;;;;;17.80;100.00;100986.19;2071847;28;20617;-69
2023/06/13 02:22:19;;;;;;;6.83;2.77;;;;;;;17.77;100.00;100985.09;2072188;28;20248;-69
2023/06/13 02:23:20;;;;;;;3.70;2.67;;;;;;;17.81;100.00;100984.94;2072177;28;20185;-70
2023/06/13 02:24:21;;;;;;;4.50;2.80;;;;;;;17.85;100.00;100996.75;2071791;28;20188;-70
2023/06/13 02:25:22;;;;;;;4.50;2.60;;;;;;;17.40;100.00;100928.88;2071131;28;20196;-69
2023/06/13 02:26:23;;;;;;;5.20;3.07;;;;;;;17.78;100.00;100980.28;2071892;28;20201;-69
2023/06/13 02:27:25;;;;;;;6.03;2.70;;;;;;;17.78;100.00;100983.84;2073862;28;21015;-70
2023/06/13 02:28:25;;;;;;;11.00;3.20;;;;;;;17.73;100.00;100992.13;2074203;28;20835;-69
2023/06/13 02:29:26;;;;;;;5.47;3.00;;;;;;;17.72;100.00;100989.81;2073933;28;20530;-69
2023/06/13 02:30:26;;;;;;;6.23;3.27;;;;;;;17.81;100.00;100992.56;2073675;28;20192;-69
2023/06/13 02:31:27;;;;;;;4.53;2.80;;;;;;;16.64;100.00;100820.75;2073400;28;20643;-69
2023/06/13 02:32:29;;;;;;;7.50;3.10;;;;;;;17.70;100.00;100992.31;2074082;28;20192;-70
2023/06/13 02:33:30;;;;;;;6.83;3.27;;;;;;;17.76;100.00;100987.63;2073917;28;20676;-69
2023/06/13 02:34:30;;;;;;;4.07;2.63;;;;;;;17.69;100.00;100985.91;2073439;28;20524;-70
2023/06/13 02:35:31;;;;;;;8.33;3.00;;;;;;;17.61;100.00;100979.06;2073068;28;20746;-69
2023/06/13 02:36:31;;;;;;;11.23;3.47;;;;;;;17.81;100.00;101003.78;2073687;28;20618;-69
2023/06/13 02:37:31;;;;;;;5.33;2.70;;;;;;;17.81;100.00;100993.34;2074024;28;20560;-69
2023/06/13 02:38:32;;;;;;;6.93;2.63;;;;;;;17.62;100.00;100951.84;2073782;28;20258;-69
2023/06/13 02:39:32;;;;;;;4.60;2.73;;;;;;;17.86;100.00;100989.13;2073863;28;20195;-70
2023/06/13 02:40:35;;;;;;;5.33;2.70;;;;;;;17.81;100.00;100989.78;2073044;28;20201;-69
2023/06/13 02:41:36;;;;;;;6.63;2.63;;;;;;;17.80;100.00;100986.19;2069797;28;20211;-69
2023/06/13 02:42:36;;;;;;;4.13;2.57;;;;;;;17.68;100.00;100973.16;2073970;28;20477;-69
2023/06/13 02:43:36;;;;;;;5.27;2.70;;;;;;;17.83;100.00;100997.22;2073697;28;20178;-69
2023/06/13 02:44:37;;;;;;;4.57;2.57;;;;;;;17.85;100.00;100993.94;2073771;28;20662;-69
2023/06/13 02:45:37;;;;;;;4.83;2.70;;;;;;;17.82;100.00;100982.91;2073354;28;20699;-69
2023/06/13 02:46:38;;;;;;;5.37;2.87;;;;;;;17.88;100.00;100998.63;2073811;28;20209;-70
2023/06/13 02:47:38;;;;;;;4.63;2.57;;;;;;;17.14;100.00;100878.03;2073911;28;20257;-69
2023/06/13 02:48:39;;;;;;;4.30;2.50;;;;;;;17.81;100.00;100992.56;2073862;28;20197;-69
2023/06/13 02:49:39;;;;;;;3.73;2.60;;;;;;;17.79;100.00;100998.66;2073704;28;20862;-69
2023/06/13 02:50:40;;;;;;;5.37;2.40;;;;;;;17.80;100.00;100999.44;2073262;28;20203;-70
2023/06/13 02:51:40;;;;;;;4.37;2.73;;;;;;;17.82;100.00;100996.94;2071301;28;20177;-69
2023/06/13 02:52:41;;;;;;;5.47;2.50;;;;;;;17.64;100.00;100983.75;2066259;28;20746;-69
2023/06/13 02:53:41;;;;;;;3.67;2.60;;;;;;;17.78;100.00;101005.50;2073719;28;20607;-69
2023/06/13 02:54:42;;;;;;;5.60;2.87;;;;;;;17.08;100.00;100894.72;2073833;28;20455;-69
2023/06/13 02:55:44;;;;;;;5.83;3.00;;;;;;;17.87;100.00;101008.28;2066130;28;20387;-69
2023/06/13 02:56:45;;;;;;;4.10;2.50;;;;;;;17.90;100.00;101001.72;2071589;28;20186;-69
2023/06/13 02:57:45;;;;;;;7.67;2.60;;;;;;;17.17;100.00;100893.91;2074020;28;20451;-69
2023/06/13 02:58:46;;;;;;;5.37;2.60;;;;;;;17.80;100.00;101003.00;2073599;28;20273;-69
2023/06/13 02:59:47;;;;;;;13.17;2.80;;;;;;;17.73;100.00;100994.94;2073813;28;20185;-69
2023/06/13 03:00:48;;;;;;;5.20;2.57;;;;;;;17.79;100.00;101026.69;2073052;28;20184;-69
2023/06/13 03:01:49;;;;;;;6.33;2.67;;;;;;;17.57;100.00;100995.31;2073636;28;20485;-69
2023/06/13 03:02:49;;;;;;;4.40;2.83;;;;;;;17.56;100.00;101001.38;2073235;28;20198;-70
2023/06/13 03:03:51;;;;;;;5.47;2.90;;;;;;;17.52;100.00;101009.16;2073903;28;20185;-69
2023/06/13 03:04:52;;;;;;;5.73;3.10;;;;;;;17.54;100.00;101007.44;2073354;28;20184;-69
2023/06/13 03:05:59;;;;;;;5.10;2.80;;;;;;;17.52;100.00;101009.94;2072901;28;20456;-69
2023/06/13 03:07:00;;;;;;;8.87;2.73;;;;;;;17.45;100.00;101001.84;2073667;28;20475;-69
2023/06/13 03:08:00;;;;;;;3.63;2.60;;;;;;;17.40;100.00;101008.09;2073715;28;20439;-69
2023/06/13 03:09:01;;;;;;;10.10;3.10;;;;;;;16.75;100.00;100907.03;2073477;28;20454;-69
2023/06/13 03:10:06;;;;;;;4.83;2.70;;;;;;;17.49;100.00;101016.47;2081261;28;20177;-69
2023/06/13 03:11:06;;;;;;;5.07;2.83;;;;;;;17.46;100.00;101013.84;2079874;28;20168;-69
2023/06/13 03:12:07;;;;;;;10.20;3.23;;;;;;;17.46;100.00;101016.66;2073366;28;20429;-68
2023/06/13 03:13:08;;;;;;;5.37;2.57;;;;;;;17.50;100.00;101017.28;2073063;28;20185;-69
2023/06/13 03:14:08;;;;;;;6.50;2.80;;;;;;;17.46;100.00;101013.84;2073792;28;20208;-70
2023/06/13 03:15:09;;;;;;;10.43;3.37;;;;;;;17.37;100.00;101015.38;2073455;28;20182;-69
2023/06/13 03:16:10;;;;;;;10.00;3.43;;;;;;;17.32;100.00;101018.81;2072758;28;20198;-69
2023/06/13 03:17:10;;;;;;;6.97;3.20;;;;;;;17.32;100.00;101023.66;2073398;28;20227;-69
2023/06/13 03:18:11;;;;;;;5.73;3.37;;;;;;;17.32;100.00;101027.22;2073839;28;20500;-70
2023/06/13 03:19:12;;;;;;;12.83;3.20;;;;;;;17.22;100.00;101010.91;2073334;28;20275;-69
2023/06/13 03:20:12;;;;;;;6.00;3.30;;;;;;;17.26;100.00;101025.53;2073273;28;20564;-69
2023/06/13 03:21:15;;;;;;;7.17;2.90;;;;;;;17.28;100.00;101023.81;2073238;28;20210;-70
2023/06/13 03:22:16;;;;;;;7.20;2.80;;;;;;;17.31;100.00;101025.66;2074011;28;20444;-69
2023/06/13 03:23:16;;;;;;;7.47;3.13;;;;;;;16.91;100.00;100969.06;2073090;28;20881;-69
2023/06/13 03:24:17;;;;;;;8.13;3.03;;;;;;;17.29;100.00;101027.38;2073647;28;20580;-69
2023/06/13 03:25:19;;;;;;;4.97;2.93;;;;;;;17.10;100.00;101004.22;2070935;28;20568;-69
2023/06/13 03:26:19;;;;;;;8.57;3.03;;;;;;;17.31;100.00;101024.91;2072901;28;20477;-70
2023/06/13 03:27:20;;;;;;;6.17;3.00;;;;;;;17.30;100.00;101034.53;2073478;28;20426;-69
2023/06/13 03:28:20;;;;;;;8.97;2.73;;;;;;;17.22;100.00;101028.47;2073676;28;20187;-69
2023/06/13 03:29:21;;;;;;;9.07;3.10;;;;;;;17.19;100.00;101028.63;2067615;28;20269;-70
2023/06/13 03:30:21;;;;;;;7.70;2.60;;;;;;;17.12;100.00;101040.91;2073561;28;20196;-69
2023/06/13 03:31:21;;;;;;;4.87;3.07;;;;;;;16.98;100.00;101038.75;2073233;28;20194;-69
2023/06/13 03:32:22;;;;;;;7.63;3.10;;;;;;;16.99;100.00;101045.13;2074355;28;20267;-69
2023/06/13 03:33:23;;;;;;;7.60;3.10;;;;;;;16.77;100.00;100996.91;2073300;28;20201;-70
2023/06/13 03:34:28;;;;;;;4.47;2.70;;;;;;;16.35;100.00;100942.75;2072742;28;20189;-70
2023/06/13 03:35:28;;;;;;;4.33;2.70;;;;;;;17.03;100.00;101042.94;2072739;28;20191;-69
2023/06/13 03:36:29;;;;;;;7.77;2.90;;;;;;;17.06;100.00;101042.78;2072653;28;20429;-69
2023/06/13 03:37:29;;;;;;;6.40;3.00;;;;;;;17.09;100.00;101038.28;2072760;28;20705;-69
2023/06/13 03:38:30;;;;;;;4.60;2.37;;;;;;;17.07;100.00;101049.19;2073612;28;20203;-69
2023/06/13 03:39:31;;;;;;;6.87;2.87;;;;;;;17.02;100.00;101047.00;2065614;28;20201;-70
2023/06/13 03:40:32;;;;;;;6.57;2.73;;;;;;;17.03;100.00;101051.34;2071650;28;20248;-69
2023/06/13 03:41:32;;;;;;;3.50;2.77;;;;;;;17.12;100.00;101051.34;2073295;28;20189;-70
2023/06/13 03:42:33;;;;;;;5.40;2.60;;;;;;;17.09;100.00;101052.28;2073472;28;20487;-69
2023/06/13 03:43:33;;;;;;;5.97;2.63;;;;;;;16.86;100.00;101020.06;2073473;28;20185;-69
2023/06/13 03:44:34;;;;;;;4.73;2.60;;;;;;;17.03;100.00;101052.13;2072675;28;20202;-70
2023/06/13 03:45:35;;;;;;;4.20;2.70;;;;;;;17.06;100.00;101056.03;2072608;28;20194;-71
2023/06/13 03:46:36;;;;;;;4.73;2.77;;;;;;;17.09;100.00;101058.66;2073116;28;20212;-70
2023/06/13 03:47:37;;;;;;;6.53;2.83;;;;;;;17.06;100.00;101039.97;2073572;28;20431;-70
2023/06/13 03:48:38;;;;;;;6.50;2.40;;;;;;;17.16;100.00;101046.38;2073286;28;20435;-69
2023/06/13 03:49:38;;;;;;;4.97;2.60;;;;;;;17.19;100.00;101053.84;2073499;28;20469;-69
2023/06/13 03:50:39;;;;;;;6.10;2.90;;;;;;;17.23;100.00;101048.84;2072509;28;20204;-70
2023/06/13 03:51:39;;;;;;;8.67;2.70;;;;;;;17.26;100.00;101057.09;2073378;28;20243;-69
2023/06/13 03:52:40;;;;;;;5.57;2.90;;;;;;;17.27;100.00;101061.44;2072825;28;20190;-70
2023/06/13 03:53:40;;;;;;;4.43;2.70;;;;;;;17.27;100.00;101050.25;2067216;28;20192;-69
2023/06/13 03:54:40;;;;;;;4.10;2.40;;;;;;;17.20;100.00;101052.59;2072973;28;20182;-70
2023/06/13 03:55:41;;;;;;;4.83;2.70;;;;;;;17.19;100.00;101057.41;2072375;28;20268;-70
2023/06/13 03:56:41;;;;;;;5.47;2.67;;;;;;;16.93;100.00;101028.19;2073163;28;20178;-69
2023/06/13 03:57:42;;;;;;;3.20;2.57;;;;;;;17.24;100.00;101061.59;2073569;28;20741;-70
2023/06/13 03:58:43;;;;;;;4.80;2.60;;;;;;;17.26;100.00;101061.94;2073179;28;20193;-70
2023/06/13 03:59:43;;;;;;;5.40;2.23;;;;;;;17.19;100.00;101059.44;2073532;28;20198;-70
2023/06/13 04:00:44;;;;;;;4.47;2.63;;;;;;;17.23;100.00;101058.06;2072559;28;20666;-69
2023/06/13 04:01:44;;;;;;;3.30;2.50;;;;;;;17.28;100.00;101053.84;2073254;28;20615;-70
2023/06/13 04:02:45;;;;;;;4.67;2.40;;;;;;;17.29;100.00;101061.78;2072075;28;20638;-70
2023/06/13 04:03:46;;;;;;;5.00;2.70;;;;;;;17.31;100.00;101061.31;2065529;28;20201;-70
2023/06/13 04:04:47;;;;;;;4.43;2.90;;;;;;;17.30;100.00;101068.13;2068387;28;20280;-69
2023/06/13 04:05:47;;;;;;;3.37;2.80;;;;;;;17.33;100.00;101065.22;2071651;28;20235;-70
2023/06/13 04:06:49;;;;;;;6.57;2.90;;;;;;;16.88;100.00;100997.22;2073018;28;20476;-70
2023/06/13 04:07:49;;;;;;;5.03;2.70;;;;;;;17.29;100.00;101058.97;2073346;28;20191;-69
2023/06/13 04:08:50;;;;;;;4.37;2.87;;;;;;;17.25;100.00;101060.34;2073049;28;20918;-70
2023/06/13 04:09:50;;;;;;;5.43;2.43;;;;;;;17.27;100.00;101069.84;2073288;28;20278;-70
2023/06/13 04:10:50;;;;;;;3.37;2.30;;;;;;;17.32;100.00;101065.66;2071751;28;20671;-70
2023/06/13 04:11:51;;;;;;;5.67;2.57;;;;;;;17.35;100.00;101065.50;2072759;28;20562;-69
2023/06/13 04:12:51;;;;;;;3.83;2.30;;;;;;;17.35;100.00;101056.31;2073266;28;20222;-70
2023/06/13 04:13:52;;;;;;;8.07;2.60;;;;;;;17.39;100.00;101053.41;2072765;28;20199;-70
2023/06/13 04:14:52;;;;;;;6.60;2.60;;;;;;;17.35;100.00;101047.91;2073132;28;20213;-70
2023/06/13 04:15:52;;;;;;;4.77;2.60;;;;;;;17.46;100.00;101055.88;2071625;28;20247;-69
2023/06/13 04:16:53;;;;;;;6.87;2.63;;;;;;;17.37;100.00;101060.19;2070812;28;20192;-69
2023/06/13 04:17:54;;;;;;;4.93;2.20;;;;;;;17.32;100.00;101066.44;2067911;28;20615;-69
2023/06/13 04:18:54;;;;;;;4.00;2.30;;;;;;;17.39;100.00;101059.78;2072928;28;20237;-69
2023/06/13 04:19:55;;;;;;;5.83;2.13;;;;;;;17.47;100.00;101063.81;2073072;28;20185;-69
2023/06/13 04:20:57;;;;;;;5.47;2.80;;;;;;;17.12;100.00;101003.75;2072687;28;20237;-69
2023/06/13 04:21:59;;;;;;;5.70;2.20;;;;;;;17.26;100.00;101020.69;2073271;28;20279;-70
2023/06/13 04:23:01;;;;;;;4.33;2.40;;;;;;;17.55;100.00;101064.28;2073052;28;20440;-70
2023/06/13 04:24:01;;;;;;;6.40;2.13;;;;;;;17.58;100.00;101064.09;2073189;28;20434;-69
2023/06/13 04:25:02;;;;;;;10.10;2.83;;;;;;;17.63;100.00;101065.50;2073191;28;21229;-70
2023/06/13 04:26:05;;;;;;;5.53;2.37;;;;;;;17.58;100.00;101055.69;2071819;28;20575;-69
2023/06/13 04:27:08;;;;;;;4.77;2.27;;;;;;;17.68;100.00;101060.03;2072589;28;20562;-70
2023/06/13 04:28:08;;;;;;;4.67;2.13;;;;;;;17.77;100.00;101071.25;2073131;28;20424;-70
2023/06/13 04:29:09;;;;;;;4.60;1.97;;;;;;;17.63;100.00;101050.22;2065219;28;20433;-69
2023/06/13 04:30:11;;;;;;;6.20;2.13;;;;;;;17.77;100.00;101063.59;2062739;28;20195;-69
2023/06/13 04:31:12;;;;;;;9.83;2.37;;;;;;;17.79;100.00;101077.16;2065298;28;20662;-70
2023/06/13 04:32:17;;;;;;;5.80;2.03;;;;;;;17.72;100.00;101071.88;2072825;28;20911;-69
2023/06/13 04:33:18;;;;;;;4.40;2.40;;;;;;;17.76;100.00;101066.84;2072612;28;20441;-69
2023/06/13 04:34:20;;;;;;;3.27;1.97;;;;;;;17.73;100.00;101067.81;2072113;28;20482;-71
2023/06/13 04:35:21;;;;;;;3.73;2.03;;;;;;;17.79;100.00;101068.72;2071652;28;20477;-69
2023/06/13 04:36:24;;;;;;;4.30;2.20;;;;;;;17.83;100.00;101072.16;2071500;28;20450;-70
2023/06/13 04:37:25;;;;;;;6.20;2.30;;;;;;;17.83;100.00;101063.75;2071504;28;20486;-70
2023/06/13 04:38:29;;;;;;;3.53;2.40;;;;;;;17.91;100.00;101070.56;2062906;28;20952;-70
2023/06/13 04:39:30;;;;;;;3.70;2.10;;;;;;;17.99;100.00;101074.59;2080122;28;21011;-69
2023/06/13 04:40:33;;;;;;;6.40;2.47;;;;;;;17.99;100.00;101072.56;2079797;28;20845;-69
2023/06/13 04:41:34;;;;;;;2.60;2.17;;;;;;;17.97;100.00;101079.88;2072262;28;20578;-69
2023/06/13 04:42:35;;;;;;;4.93;2.30;;;;;;;17.96;100.00;101081.16;2072624;28;20875;-69
2023/06/13 04:43:36;;;;;;;4.13;1.80;;;;;;;17.95;100.00;101082.41;2072766;28;20467;-69
2023/06/13 04:44:37;;;;;;;4.13;2.07;;;;;;;17.08;100.00;100953.50;2072354;28;20273;-70
2023/06/13 04:45:37;;;;;;;2.60;2.10;;;;;;;17.94;100.00;101083.66;2071350;28;20465;-69
2023/06/13 04:46:43;;;;;;;4.50;2.00;;;;;;;17.12;100.00;100954.09;2072716;28;20245;-70